Time;durP1;ratioP1;P1;durP2;ratioP2;P2;SDS_P1;SDS_P2;PMS_P1;PMS_P2;Temp;Humidity;BMP_temperature;BMP_pressure;BME280_temperature;BME280_humidity;BME280_pressure;Samples;Min_cycle;Max_cycle;Signal;HPM_P1;HPM_P2
2022/04/09 00:02:07;;;;;;;9.15;3.00;;;;;;;14.18;44.27;94341.06;5010319;28;20507;-60
2022/04/09 00:04:32;;;;;;;4.80;2.58;;;;;;;14.21;43.44;94340.81;5010572;28;20030;-60
2022/04/09 00:06:58;;;;;;;5.22;2.40;;;;;;;14.30;43.18;94334.81;5010319;28;20614;-60
2022/04/09 00:09:23;;;;;;;8.38;2.75;;;;;;;14.39;42.29;94320.22;5010278;28;20444;-60
2022/04/09 00:11:49;;;;;;;3.88;2.10;;;;;;;14.48;41.93;94320.19;5010205;28;20033;-60
2022/04/09 00:14:15;;;;;;;4.22;2.92;;;;;;;14.43;42.43;94332.78;5010188;28;20045;-60
2022/04/09 00:16:41;;;;;;;5.32;2.80;;;;;;;14.35;42.30;94314.47;5009968;28;20038;-61
2022/04/09 00:19:07;;;;;;;5.90;2.60;;;;;;;14.23;41.74;94306.03;5010043;28;20100;-62
2022/04/09 00:21:34;;;;;;;5.63;2.42;;;;;;;14.40;42.03;94319.25;5010216;28;20513;-60
2022/04/09 00:23:59;;;;;;;3.45;2.33;;;;;;;14.45;42.19;94338.63;5009890;28;20412;-63
2022/04/09 00:26:25;;;;;;;5.50;3.17;;;;;;;14.52;42.28;94341.50;5009869;28;20040;-61
2022/04/09 00:28:50;;;;;;;4.85;2.50;;;;;;;14.58;41.65;94330.56;5009723;28;20034;-61
2022/04/09 00:31:16;;;;;;;4.15;2.40;;;;;;;14.12;41.37;94262.09;5009957;28;20018;-61
2022/04/09 00:33:41;;;;;;;4.25;2.05;;;;;;;14.50;41.51;94320.88;5009818;28;20034;-59
2022/04/09 00:36:07;;;;;;;5.38;2.40;;;;;;;14.60;41.58;94333.88;5009988;28;20121;-61
2022/04/09 00:38:32;;;;;;;5.60;2.70;;;;;;;14.50;42.22;94331.25;5009959;28;20099;-60
2022/04/09 00:40:58;;;;;;;5.50;3.10;;;;;;;14.22;44.25;94334.69;5009775;28;20156;-64
2022/04/09 00:43:23;;;;;;;5.05;2.95;;;;;;;13.94;44.53;94332.72;5010013;28;20033;-62
2022/04/09 00:45:50;;;;;;;4.80;3.13;;;;;;;13.77;45.82;94331.59;5010090;28;20105;-64
2022/04/09 00:48:17;;;;;;;6.75;2.95;;;;;;;13.68;45.38;94316.03;5009821;28;20042;-61
2022/04/09 00:50:43;;;;;;;5.85;3.53;;;;;;;13.51;45.72;94276.03;5009914;28;20077;-63
2022/04/09 00:53:09;;;;;;;5.50;3.03;;;;;;;13.70;45.53;94322.72;5009777;28;20560;-69
2022/04/09 00:58:20;;;;;;;5.75;3.00;;;;;;;13.42;47.62;94313.91;5010048;28;20095;-61
2022/04/09 01:00:46;;;;;;;6.93;3.45;;;;;;;13.28;46.99;94304.72;5011935;28;20022;-60
2022/04/09 01:03:19;;;;;;;6.43;3.28;;;;;;;13.26;47.64;94314.34;5013716;28;20032;-60
2022/04/09 01:05:45;;;;;;;6.57;4.13;;;;;;;13.03;47.50;94296.41;5013611;28;20405;-61
2022/04/09 01:08:10;;;;;;;7.20;4.32;;;;;;;13.06;47.88;94311.69;5013687;28;20026;-61
2022/04/09 01:10:37;;;;;;;7.10;3.47;;;;;;;13.02;48.03;94305.13;5013647;28;20367;-61
2022/04/09 01:13:03;;;;;;;4.85;2.80;;;;;;;12.83;47.83;94272.22;5013512;28;20498;-61
2022/04/09 01:15:29;;;;;;;6.43;3.70;;;;;;;12.92;48.60;94303.44;5013786;28;20028;-61
2022/04/09 01:17:54;;;;;;;8.73;3.97;;;;;;;12.68;48.58;94251.03;5013469;28;20470;-62
2022/04/09 01:20:22;;;;;;;5.97;3.90;;;;;;;12.87;48.65;94288.28;5013918;28;20026;-61
2022/04/09 01:22:48;;;;;;;7.15;3.50;;;;;;;12.84;49.15;94297.16;5013508;28;20026;-61
2022/04/09 01:25:13;;;;;;;5.05;3.20;;;;;;;12.63;49.29;94260.94;5013278;28;20100;-61
2022/04/09 01:27:40;;;;;;;7.03;2.97;;;;;;;12.49;49.14;94248.34;5013658;28;20029;-61
2022/04/09 01:30:06;;;;;;;5.78;3.40;;;;;;;12.81;49.51;94301.75;5013417;28;20034;-61
2022/04/09 01:32:32;;;;;;;6.03;3.10;;;;;;;12.58;49.05;94263.09;5013259;28;20030;-60
2022/04/09 01:35:01;;;;;;;5.18;2.90;;;;;;;12.68;48.82;94279.47;5013113;28;20040;-61
2022/04/09 01:37:27;;;;;;;5.40;3.08;;;;;;;12.73;49.11;94294.63;5013358;28;20117;-63
2022/04/09 01:39:53;;;;;;;4.50;2.80;;;;;;;12.71;49.08;94293.94;5012904;28;20121;-60
2022/04/09 01:42:21;;;;;;;5.68;3.30;;;;;;;12.69;49.69;94299.25;5011979;28;20126;-60
2022/04/09 01:44:49;;;;;;;5.53;3.05;;;;;;;12.65;49.32;94297.84;5012989;28;20033;-61
2022/04/09 01:47:15;;;;;;;4.95;3.05;;;;;;;12.44;49.47;94271.97;5012848;28;20042;-61
2022/04/09 01:49:41;;;;;;;8.02;3.50;;;;;;;12.45;49.77;94283.16;5013103;28;20030;-62
2022/04/09 01:52:07;;;;;;;7.22;3.20;;;;;;;12.55;50.13;94309.91;5012891;28;20034;-65
2022/04/09 01:54:33;;;;;;;3.92;2.80;;;;;;;12.50;50.30;94315.44;5012755;28;20066;-65
2022/04/09 01:56:58;;;;;;;6.85;3.08;;;;;;;12.42;50.28;94311.84;5012757;28;20136;-64
2022/04/09 01:59:24;;;;;;;6.45;3.17;;;;;;;12.27;50.48;94295.81;5012904;28;20034;-61
2022/04/09 02:01:49;;;;;;;8.68;2.92;;;;;;;12.21;50.45;94279.03;5012708;28;20473;-60
2022/04/09 02:04:17;;;;;;;5.40;3.20;;;;;;;12.40;50.25;94300.81;5012794;28;20137;-61
2022/04/09 02:06:43;;;;;;;5.38;2.80;;;;;;;12.30;49.96;94290.41;5012505;28;20038;-61
2022/04/09 02:09:11;;;;;;;5.90;3.25;;;;;;;12.29;49.55;94286.16;5012513;28;20028;-60
2022/04/09 02:11:41;;;;;;;5.65;3.10;;;;;;;12.42;49.64;94302.31;5011525;28;20180;-64
2022/04/09 02:14:10;;;;;;;7.80;3.17;;;;;;;12.41;49.59;94300.69;5012605;28;20037;-60
2022/04/09 02:16:36;;;;;;;7.57;3.72;;;;;;;12.18;49.84;94274.09;5012357;28;20026;-61
2022/04/09 02:19:02;;;;;;;6.63;3.25;;;;;;;12.37;49.88;94303.66;5012367;28;20030;-61
2022/04/09 02:21:28;;;;;;;6.70;3.03;;;;;;;12.28;50.11;94294.84;5012545;28;20069;-60
2022/04/09 02:23:54;;;;;;;5.00;3.25;;;;;;;12.26;49.89;94289.81;5012142;28;20128;-62
2022/04/09 02:26:20;;;;;;;7.47;3.22;;;;;;;12.24;50.19;94294.28;5012503;28;20025;-62
2022/04/09 02:28:49;;;;;;;6.45;3.13;;;;;;;12.16;50.40;94275.19;5012633;28;20501;-62
2022/04/09 02:31:17;;;;;;;7.50;3.63;;;;;;;12.24;50.75;94290.91;5012162;28;20080;-60
2022/04/09 02:33:43;;;;;;;8.40;4.43;;;;;;;12.01;51.01;94274.66;5012269;28;20102;-60
2022/04/09 02:36:12;;;;;;;6.50;3.60;;;;;;;12.12;50.91;94297.88;5011918;28;20030;-60
2022/04/09 02:38:40;;;;;;;8.43;3.67;;;;;;;12.12;50.85;94300.47;5011832;28;20568;-62
2022/04/09 02:41:08;;;;;;;9.20;3.70;;;;;;;12.07;51.22;94293.09;5011837;28;20026;-61
2022/04/09 02:43:34;;;;;;;6.40;3.42;;;;;;;12.05;51.16;94291.56;5011944;28;20117;-61
2022/04/09 02:45:59;;;;;;;5.90;3.15;;;;;;;11.83;51.81;94269.19;5011920;28;20037;-61
2022/04/09 02:48:25;;;;;;;5.20;3.00;;;;;;;11.95;51.66;94283.72;5011916;28;20026;-61
2022/04/09 02:50:50;;;;;;;6.18;2.80;;;;;;;11.92;51.70;94271.88;5012036;28;20412;-60
2022/04/09 02:53:15;;;;;;;6.85;3.10;;;;;;;11.93;51.90;94270.91;5011741;28;20038;-64
2022/04/09 02:55:41;;;;;;;5.68;3.00;;;;;;;12.07;51.65;94287.91;5011596;28;20101;-61
2022/04/09 02:58:06;;;;;;;9.80;5.80;;;;;;;12.19;51.95;94278.34;5011851;28;20030;-61
2022/04/09 03:00:32;;;;;;;8.02;4.20;;;;;;;11.90;52.29;94257.41;5011754;28;20386;-61
2022/04/09 03:02:57;;;;;;;12.32;5.03;;;;;;;11.64;52.70;94247.41;5011774;28;20498;-61
2022/04/09 03:05:23;;;;;;;8.45;3.72;;;;;;;11.76;53.41;94289.50;5011574;28;20029;-60
2022/04/09 03:07:48;;;;;;;6.28;3.30;;;;;;;11.41;54.38;94264.69;5012055;28;20034;-60
2022/04/09 03:10:14;;;;;;;4.97;2.97;;;;;;;11.36;54.28;94277.13;5011498;28;20022;-60
2022/04/09 03:12:47;;;;;;;6.18;3.30;;;;;;;11.32;54.96;94304.16;5011323;28;20168;-61
2022/04/09 03:15:14;;;;;;;7.10;3.85;;;;;;;11.16;55.08;94276.91;5011343;28;20034;-61
2022/04/09 03:17:40;;;;;;;6.95;3.08;;;;;;;11.12;55.54;94297.94;5007964;28;20029;-60
2022/04/09 03:20:06;;;;;;;6.70;3.65;;;;;;;11.03;55.82;94286.53;4991274;28;20073;-63
2022/04/09 03:22:32;;;;;;;4.90;3.17;;;;;;;11.00;55.76;94286.78;4991710;28;20443;-62
2022/04/09 03:25:01;;;;;;;5.68;3.58;;;;;;;10.98;55.86;94278.34;4991381;28;20058;-62
2022/04/09 03:27:27;;;;;;;6.18;3.40;;;;;;;10.95;55.82;94273.41;4991943;28;20050;-61
2022/04/09 03:29:53;;;;;;;7.57;4.43;;;;;;;10.99;56.35;94274.84;4991424;28;20115;-61
2022/04/09 03:32:19;;;;;;;7.28;3.88;;;;;;;11.07;56.45;94279.38;4991632;28;20121;-60
2022/04/09 03:34:45;;;;;;;7.55;3.83;;;;;;;11.09;56.01;94275.75;4991489;28;20045;-61
2022/04/09 03:37:10;;;;;;;5.97;3.80;;;;;;;11.09;55.71;94259.47;4991487;28;20435;-61
2022/04/09 03:39:37;;;;;;;7.32;3.65;;;;;;;11.17;55.92;94281.16;4991302;28;20109;-64
2022/04/09 03:42:06;;;;;;;8.73;4.03;;;;;;;11.01;55.63;94250.53;4991753;28;20030;-62
2022/04/09 03:44:31;;;;;;;7.18;3.33;;;;;;;10.98;56.35;94260.28;4991594;28;20022;-64
2022/04/09 03:46:58;;;;;;;4.78;3.20;;;;;;;10.90;56.22;94293.56;4991356;28;20050;-61
2022/04/09 03:49:24;;;;;;;6.30;3.40;;;;;;;10.81;57.09;94288.19;4991047;28;20026;-62
2022/04/09 03:51:49;;;;;;;7.22;3.20;;;;;;;10.75;56.82;94301.53;4991191;28;20037;-62
2022/04/09 03:54:15;;;;;;;5.68;3.53;;;;;;;10.93;56.95;94290.78;4990736;28;20034;-60
2022/04/09 03:56:41;;;;;;;9.05;4.00;;;;;;;10.95;57.26;94281.16;4991474;28;20030;-61
2022/04/09 03:59:07;;;;;;;5.72;3.75;;;;;;;10.74;57.10;94248.34;4990952;28;20038;-62
2022/04/09 04:01:32;;;;;;;6.93;4.22;;;;;;;10.83;57.17;94283.72;4990861;28;20038;-61
2022/04/09 04:03:57;;;;;;;9.77;3.90;;;;;;;10.73;57.89;94280.19;4990784;28;20027;-60
2022/04/09 04:06:23;;;;;;;5.82;3.70;;;;;;;10.68;58.36;94279.72;4990865;28;20030;-64
2022/04/09 04:08:48;;;;;;;9.10;5.18;;;;;;;10.69;58.44;94273.66;4990963;28;20026;-66
2022/04/09 04:11:14;;;;;;;8.73;4.32;;;;;;;10.65;57.75;94269.66;4990796;28;20052;-61
2022/04/09 04:13:39;;;;;;;5.95;3.80;;;;;;;10.50;57.76;94252.75;4990824;28;20109;-62
2022/04/09 04:16:05;;;;;;;7.18;4.15;;;;;;;10.79;58.24;94279.75;4990769;28;20486;-60
2022/04/09 04:18:31;;;;;;;7.18;3.78;;;;;;;10.98;57.73;94280.91;4990674;28;20022;-62
2022/04/09 04:20:56;;;;;;;8.40;4.47;;;;;;;11.03;57.23;94289.97;4990780;28;20030;-62
2022/04/09 04:23:23;;;;;;;5.43;3.40;;;;;;;10.97;57.12;94287.84;4990749;28;20030;-61
2022/04/09 04:25:50;;;;;;;6.15;3.53;;;;;;;10.85;57.41;94281.88;4990741;28;20409;-63
2022/04/09 04:28:15;;;;;;;9.02;5.22;;;;;;;10.73;57.54;94279.38;4990597;28;20462;-61
2022/04/09 04:30:41;;;;;;;5.90;4.20;;;;;;;10.65;58.65;94283.34;4990584;28;20027;-61
2022/04/09 04:33:06;;;;;;;8.00;4.05;;;;;;;10.71;58.63;94282.09;4990297;28;20093;-61
2022/04/09 04:35:32;;;;;;;10.88;4.43;;;;;;;10.73;58.08;94280.19;4990156;28;20089;-60
2022/04/09 04:37:57;;;;;;;8.43;3.97;;;;;;;10.79;58.27;94282.31;4990366;28;20390;-60
2022/04/09 04:40:23;;;;;;;10.30;4.60;;;;;;;10.87;57.87;94275.75;4990729;28;20027;-59
2022/04/09 04:42:49;;;;;;;5.60;3.65;;;;;;;11.04;57.25;94272.72;4990781;28;20108;-57
2022/04/09 04:45:15;;;;;;;9.95;4.28;;;;;;;10.91;57.16;94231.56;4990432;28;20557;-59
2022/04/09 04:47:48;;;;;;;9.38;4.68;;;;;;;11.39;56.21;94258.84;4990360;28;20093;-59
2022/04/09 04:50:15;;;;;;;10.60;4.65;;;;;;;11.47;56.35;94261.63;4990073;28;20071;-63
2022/04/09 04:52:41;;;;;;;7.57;3.97;;;;;;;11.56;55.55;94267.84;4990116;28;20457;-60
2022/04/09 04:55:09;;;;;;;8.82;4.50;;;;;;;11.64;55.86;94259.47;4990146;28;20344;-59
2022/04/09 04:57:50;;;;;;;6.55;4.10;;;;;;;11.42;55.25;94225.03;4990525;28;20069;-58
2022/04/09 05:00:21;;;;;;;9.27;4.10;;;;;;;11.71;55.33;94264.06;4989978;28;20070;-58
2022/04/09 05:02:46;;;;;;;7.53;4.03;;;;;;;11.70;54.37;94233.19;4990191;28;20022;-58
2022/04/09 05:05:12;;;;;;;9.95;4.55;;;;;;;11.94;54.39;94251.91;4990055;28;20041;-59
2022/04/09 05:07:38;;;;;;;5.70;3.33;;;;;;;11.51;54.06;94182.16;4990077;28;20106;-58
2022/04/09 05:10:09;;;;;;;7.05;3.70;;;;;;;11.98;53.97;94223.25;4990349;28;20145;-58
2022/04/09 05:12:35;;;;;;;8.47;4.03;;;;;;;11.90;53.42;94193.66;4990000;28;20023;-60
2022/04/09 05:15:01;;;;;;;9.57;4.13;;;;;;;12.09;53.29;94212.84;4990038;28;20076;-60
2022/04/09 05:17:26;;;;;;;6.53;3.85;;;;;;;12.54;52.49;94251.34;4988735;28;20105;-61
2022/04/09 05:19:52;;;;;;;9.02;3.65;;;;;;;12.67;51.88;94248.56;4990144;28;20042;-62
2022/04/09 05:22:17;;;;;;;8.20;4.32;;;;;;;12.63;51.17;94239.44;4990329;28;20037;-61
2022/04/09 05:24:43;;;;;;;12.30;5.18;;;;;;;12.50;51.69;94195.69;4990075;28;20497;-61
2022/04/09 05:27:08;;;;;;;9.85;4.95;;;;;;;12.99;50.71;94232.94;4990234;28;20057;-62
2022/04/09 05:29:33;;;;;;;9.38;5.13;;;;;;;13.21;50.38;94247.44;4988839;28;20113;-60
2022/04/09 05:32:00;;;;;;;11.63;4.97;;;;;;;13.39;50.11;94236.47;4989704;28;20081;-60
2022/04/09 05:34:25;;;;;;;8.30;4.07;;;;;;;13.64;50.10;94244.72;4989773;28;20470;-59
2022/04/09 05:36:50;;;;;;;8.77;4.70;;;;;;;13.91;48.65;94221.53;4989771;28;20026;-59
2022/04/09 05:39:17;;;;;;;11.10;4.50;;;;;;;14.27;47.87;94218.41;4989518;28;20066;-62
2022/04/09 05:41:43;;;;;;;7.70;4.50;;;;;;;14.44;47.52;94242.78;4988158;28;20383;-59
2022/04/09 05:44:09;;;;;;;7.97;4.80;;;;;;;14.86;49.29;94229.47;4990264;28;20038;-56
2022/04/09 05:46:34;;;;;;;10.48;4.10;;;;;;;15.52;49.95;94210.28;4989981;28;20050;-55
2022/04/09 05:49:00;;;;;;;9.68;4.13;;;;;;;16.56;45.76;94221.94;4993209;28;20038;-55
2022/04/09 05:51:25;;;;;;;11.60;4.47;;;;;;;17.20;44.09;94221.66;4993167;28;20391;-56
2022/04/09 05:53:51;;;;;;;6.70;3.78;;;;;;;17.14;41.70;94227.50;4993217;28;20034;-56
2022/04/09 05:56:16;;;;;;;9.75;4.28;;;;;;;17.17;42.93;94222.00;4993002;28;20027;-58
2022/04/09 05:58:42;;;;;;;12.45;4.15;;;;;;;17.21;40.28;94234.50;4993180;28;20042;-60
2022/04/09 06:01:08;;;;;;;10.10;4.43;;;;;;;17.01;39.19;94235.75;4993059;28;20030;-61
2022/04/09 06:03:34;;;;;;;10.40;4.57;;;;;;;16.72;39.50;94240.28;4993090;28;20026;-60
2022/04/09 06:05:59;;;;;;;22.42;5.63;;;;;;;16.64;40.09;94242.81;4992952;28;20474;-59
2022/04/09 06:08:26;;;;;;;8.80;4.20;;;;;;;16.43;40.30;94244.91;4992751;28;20080;-60
2022/04/09 06:10:51;;;;;;;9.70;4.38;;;;;;;16.38;40.21;94236.75;4992941;28;20410;-58
2022/04/09 06:13:17;;;;;;;8.98;4.68;;;;;;;16.50;40.16;94230.34;4992927;28;20034;-61
2022/04/09 06:15:42;;;;;;;9.75;4.88;;;;;;;16.54;39.85;94236.88;4992818;28;20029;-60
2022/04/09 06:18:10;;;;;;;13.23;4.53;;;;;;;16.17;40.56;94230.91;4992790;28;20370;-59
2022/04/09 06:20:36;;;;;;;7.22;4.22;;;;;;;16.18;40.74;94236.94;4992821;28;20430;-61
2022/04/09 06:23:01;;;;;;;9.27;3.90;;;;;;;16.24;40.85;94236.34;4992645;28;20034;-62
2022/04/09 06:25:28;;;;;;;19.23;5.72;;;;;;;16.28;40.49;94229.03;4992534;28;20387;-61
2022/04/09 06:27:53;;;;;;;12.52;5.65;;;;;;;16.09;40.85;94225.66;4992840;28;20387;-61
2022/04/09 06:30:19;;;;;;;13.40;5.40;;;;;;;16.23;40.45;94221.69;4992355;28;20037;-61
2022/04/09 06:32:44;;;;;;;11.38;5.82;;;;;;;16.38;40.54;94239.34;4992209;28;20030;-63
2022/04/09 06:35:10;;;;;;;9.18;4.90;;;;;;;16.49;40.42;94233.91;4992476;28;20030;-60
2022/04/09 06:37:39;;;;;;;11.75;4.63;;;;;;;16.62;40.13;94230.91;4992679;28;20045;-61
2022/04/09 06:40:07;;;;;;;13.25;6.45;;;;;;;16.64;40.24;94235.00;4992371;28;20497;-62
2022/04/09 06:42:33;;;;;;;11.00;4.50;;;;;;;16.59;39.67;94229.44;4992522;28;20034;-62
2022/04/09 06:45:00;;;;;;;14.25;4.65;;;;;;;16.48;40.29;94232.31;4992792;28;20465;-60
2022/04/09 06:47:25;;;;;;;12.00;4.78;;;;;;;16.58;40.45;94246.03;4990669;28;20120;-67
2022/04/09 06:49:51;;;;;;;42.97;8.75;;;;;;;17.25;47.58;94235.84;4992260;28;20030;-62
2022/04/09 06:52:16;;;;;;;13.60;4.97;;;;;;;17.95;43.28;94208.66;4991629;28;20124;-63
2022/04/09 06:54:42;;;;;;;10.95;4.50;;;;;;;17.83;40.24;94149.97;4991698;28;20044;-62
2022/04/09 06:57:07;;;;;;;11.02;5.93;;;;;;;18.30;38.66;94230.25;4991995;28;20030;-63
2022/04/09 06:59:33;;;;;;;15.13;5.18;;;;;;;18.45;40.29;94219.16;4991061;28;20421;-61
2022/04/09 07:01:58;;;;;;;12.55;4.15;;;;;;;18.94;38.77;94219.09;4991630;28;20030;-63
2022/04/09 07:04:24;;;;;;;14.35;5.07;;;;;;;19.39;37.58;94229.88;4991341;28;20026;-62
2022/04/09 07:06:49;;;;;;;15.30;5.40;;;;;;;19.47;35.68;94233.25;4991872;28;20406;-62
2022/04/09 07:09:15;;;;;;;11.65;5.00;;;;;;;19.21;35.31;94236.13;4991768;28;20419;-61
2022/04/09 07:11:40;;;;;;;11.70;4.68;;;;;;;18.81;35.55;94239.66;4991572;28;20030;-62
2022/04/09 07:14:06;;;;;;;14.10;4.68;;;;;;;18.64;35.91;94223.19;4991595;28;20065;-61
2022/04/09 07:16:31;;;;;;;6.80;4.03;;;;;;;18.60;35.52;94234.97;4991375;28;20030;-61
2022/04/09 07:18:57;;;;;;;10.88;5.78;;;;;;;18.48;35.50;94210.97;4991596;28;20042;-60
2022/04/09 07:21:22;;;;;;;7.97;4.38;;;;;;;18.65;35.37;94236.09;4991241;28;20498;-62
2022/04/09 07:23:47;;;;;;;12.93;4.80;;;;;;;18.72;35.15;94225.78;4991416;28;20084;-62
2022/04/09 07:26:15;;;;;;;8.20;4.47;;;;;;;18.50;35.73;94219.47;4991415;28;20100;-61
2022/04/09 07:28:41;;;;;;;6.90;4.07;;;;;;;18.66;35.27;94211.63;4991373;28;20066;-61
2022/04/09 07:31:06;;;;;;;15.57;4.93;;;;;;;18.73;35.11;94207.34;4989954;28;20076;-61
2022/04/09 07:33:32;;;;;;;9.43;4.65;;;;;;;18.73;35.12;94211.75;4991356;28;20045;-61
2022/04/09 07:35:58;;;;;;;9.20;4.90;;;;;;;18.70;35.27;94212.09;4991260;28;20465;-62
2022/04/09 07:38:23;;;;;;;11.40;4.88;;;;;;;18.83;35.02;94209.81;4990970;28;20034;-62
2022/04/09 07:40:49;;;;;;;10.90;4.75;;;;;;;18.77;35.41;94220.06;4990883;28;20058;-63
2022/04/09 07:43:14;;;;;;;6.85;4.50;;;;;;;18.94;35.32;94218.25;4990621;28;20022;-61
2022/04/09 07:45:40;;;;;;;9.82;5.07;;;;;;;19.04;35.25;94211.88;4990889;28;20109;-60
2022/04/09 07:48:06;;;;;;;11.63;5.82;;;;;;;19.14;35.27;94222.13;4990683;28;20057;-63
2022/04/09 07:50:33;;;;;;;13.98;5.72;;;;;;;19.04;35.14;94203.22;4990365;28;20126;-61
2022/04/09 07:52:59;;;;;;;10.50;4.47;;;;;;;18.97;35.03;94210.94;4990722;28;20117;-61
2022/04/09 07:55:25;;;;;;;9.70;4.70;;;;;;;18.97;35.59;94207.47;4990701;28;20477;-62
2022/04/09 07:57:51;;;;;;;9.32;3.97;;;;;;;18.88;35.84;94204.09;4990718;28;20575;-61
2022/04/09 08:00:18;;;;;;;9.32;4.13;;;;;;;18.89;36.28;94203.13;4990668;28;20434;-61
2022/04/09 08:02:43;;;;;;;13.73;5.28;;;;;;;18.89;35.84;94190.06;4990765;28;20468;-63
2022/04/09 08:05:10;;;;;;;11.55;4.95;;;;;;;18.89;35.54;94172.56;4990602;28;20036;-63
2022/04/09 08:07:38;;;;;;;10.85;5.72;;;;;;;19.23;34.55;94199.38;4990578;28;20494;-62
2022/04/09 08:10:04;;;;;;;9.38;4.70;;;;;;;19.28;34.84;94192.69;4989844;28;20037;-64
2022/04/09 08:12:29;;;;;;;10.30;4.88;;;;;;;19.28;34.37;94179.63;4990381;28;20398;-64
2022/04/09 08:14:55;;;;;;;12.55;4.85;;;;;;;19.14;34.93;94190.78;4990251;28;20037;-62
2022/04/09 08:17:20;;;;;;;8.43;4.05;;;;;;;19.20;33.86;94169.19;4990935;28;20498;-63
2022/04/09 08:19:47;;;;;;;7.75;4.53;;;;;;;19.39;34.12;94177.59;4990265;28;20018;-64
2022/04/09 08:22:14;;;;;;;7.80;3.85;;;;;;;19.78;33.34;94171.53;4990349;28;20042;-62
2022/04/09 08:24:41;;;;;;;8.18;5.43;;;;;;;20.13;32.92;94177.97;5005247;28;20498;-63
2022/04/09 08:27:08;;;;;;;9.02;3.97;;;;;;;20.31;32.60;94166.38;4990709;28;20026;-62
2022/04/09 08:29:34;;;;;;;9.07;3.60;;;;;;;20.32;32.43;94173.25;4989840;28;20065;-62
2022/04/09 08:32:01;;;;;;;11.30;4.57;;;;;;;20.71;32.48;94177.47;4989915;28;20058;-63
2022/04/09 08:34:29;;;;;;;9.52;4.45;;;;;;;20.98;32.16;94170.81;4989820;28;20478;-61
2022/04/09 08:36:55;;;;;;;9.70;3.50;;;;;;;21.12;31.22;94137.72;4989841;28;20085;-60
2022/04/09 08:39:22;;;;;;;8.88;3.45;;;;;;;21.46;30.25;94146.78;4989950;28;20033;-62
2022/04/09 08:41:47;;;;;;;6.28;2.90;;;;;;;21.38;29.33;94136.41;4990111;28;20037;-63
2022/04/09 08:44:13;;;;;;;8.85;3.45;;;;;;;21.81;29.20;94147.78;4989766;28;20510;-62
2022/04/09 08:46:40;;;;;;;8.75;4.45;;;;;;;21.96;29.60;94152.97;5004324;28;20042;-61
2022/04/09 08:49:06;;;;;;;10.43;4.20;;;;;;;22.15;28.73;94127.09;4989851;28;20114;-62
2022/04/09 08:51:33;;;;;;;11.82;3.95;;;;;;;22.24;28.44;94140.91;4989657;28;20031;-63
2022/04/09 08:54:03;;;;;;;6.25;2.70;;;;;;;22.25;28.40;94142.50;4988270;28;20066;-63
2022/04/09 08:56:29;;;;;;;5.65;3.35;;;;;;;22.09;28.07;94107.66;4989854;28;20042;-63
2022/04/09 08:58:58;;;;;;;5.95;2.95;;;;;;;21.53;29.63;94145.09;4989618;28;20049;-64
2022/04/09 09:01:24;;;;;;;6.13;2.67;;;;;;;21.22;29.59;94153.19;4989423;28;20022;-62
2022/04/09 09:03:50;;;;;;;7.05;3.13;;;;;;;21.35;29.41;94153.31;4989069;28;20030;-64
2022/04/09 09:06:30;;;;;;;6.47;2.60;;;;;;;21.52;28.50;94116.41;4988614;28;20057;-64
2022/04/09 09:08:59;;;;;;;6.28;3.30;;;;;;;21.70;29.21;94150.09;4989045;28;20027;-61
2022/04/09 09:11:29;;;;;;;4.60;1.75;;;;;;;21.01;28.93;94151.28;4988991;28;20030;-64
2022/04/09 09:13:57;;;;;;;7.80;3.00;;;;;;;22.02;28.29;94144.34;4989102;28;20372;-64
2022/04/09 09:16:31;;;;;;;5.20;2.88;;;;;;;22.84;27.34;94142.16;4989399;28;20457;-61
2022/04/09 09:19:04;;;;;;;5.35;2.60;;;;;;;23.17;26.84;94110.00;4989268;28;20030;-62
2022/04/09 09:21:30;;;;;;;4.80;2.60;;;;;;;23.29;26.37;94134.69;4988920;28;20037;-63
2022/04/09 09:24:16;;;;;;;6.65;3.50;;;;;;;24.77;24.47;94133.06;4993075;28;20034;-65
2022/04/09 09:26:44;;;;;;;7.43;3.03;;;;;;;25.96;23.05;94138.94;4992473;28;20042;-63
2022/04/09 09:29:13;;;;;;;3.22;1.65;;;;;;;23.91;24.71;94136.50;5007837;28;20074;-61
2022/04/09 09:31:46;;;;;;;5.13;2.22;;;;;;;23.71;25.68;94139.06;4993122;28;20030;-63
2022/04/09 09:34:12;;;;;;;6.35;2.53;;;;;;;23.62;25.25;94139.25;4992649;28;20121;-62
2022/04/09 09:36:40;;;;;;;4.45;2.00;;;;;;;22.89;25.58;94099.50;4992854;28;20037;-64
2022/04/09 09:39:07;;;;;;;4.85;2.60;;;;;;;22.78;26.44;94137.66;4992932;28;20022;-62
2022/04/09 09:41:33;;;;;;;3.67;2.00;;;;;;;22.52;26.34;94157.50;4993063;28;20023;-62
2022/04/09 09:44:05;;;;;;;4.00;2.00;;;;;;;24.66;24.07;94123.16;4993068;28;20030;-62
2022/04/09 09:46:31;;;;;;;5.53;2.13;;;;;;;24.90;23.14;94103.25;4992741;28;20088;-64
2022/04/09 09:48:57;;;;;;;7.50;2.67;;;;;;;27.17;21.25;94106.97;4992438;28;20027;-64
2022/04/09 09:51:24;;;;;;;5.50;2.72;;;;;;;30.50;18.18;94107.41;4992198;28;20041;-64
2022/04/09 09:53:50;;;;;;;4.30;2.47;;;;;;;32.73;16.03;94105.09;4992261;28;20042;-65
2022/04/09 09:56:35;;;;;;;9.40;2.58;;;;;;;31.75;16.89;94102.66;4990928;28;20061;-61
2022/04/09 09:59:01;;;;;;;4.68;2.40;;;;;;;31.95;16.58;94113.50;4992482;28;20037;-61
2022/04/09 10:01:27;;;;;;;6.90;2.75;;;;;;;30.48;17.27;94085.53;4992718;28;20104;-64
2022/04/09 10:03:54;;;;;;;6.72;2.40;;;;;;;29.69;17.84;94112.88;4992381;28;20309;-62
2022/04/09 10:06:21;;;;;;;4.68;2.70;;;;;;;31.49;16.61;94105.78;4992319;28;20030;-64
2022/04/09 10:08:47;;;;;;;4.90;2.55;;;;;;;32.95;14.60;94106.84;4992347;28;20419;-63
2022/04/09 10:11:15;;;;;;;4.90;2.20;;;;;;;31.15;15.72;94103.25;4991985;28;20038;-62
2022/04/09 10:13:43;;;;;;;7.68;2.63;;;;;;;32.74;14.15;94093.34;4991933;28;20040;-65
2022/04/09 10:16:11;;;;;;;8.70;2.63;;;;;;;32.22;15.27;94089.50;4991780;28;20031;-63
2022/04/09 10:18:36;;;;;;;5.85;2.40;;;;;;;33.59;14.10;94097.78;4991450;28;20026;-61
2022/04/09 10:21:03;;;;;;;7.65;1.73;;;;;;;29.88;15.93;94105.56;4991930;28;20069;-64
2022/04/09 10:23:33;;;;;;;5.03;2.20;;;;;;;29.18;17.15;94072.09;4989866;28;20054;-64
2022/04/09 10:26:02;;;;;;;5.28;1.80;;;;;;;28.07;18.38;94094.00;4992241;28;20034;-63
2022/04/09 10:28:36;;;;;;;5.00;2.00;;;;;;;28.56;17.73;94086.66;4991963;28;20113;-63
2022/04/09 10:31:22;;;;;;;6.07;2.85;;;;;;;31.16;15.50;94093.44;4990102;28;20511;-65
2022/04/09 10:33:59;;;;;;;3.70;2.10;;;;;;;32.12;15.05;94069.94;4990590;28;20041;-63
2022/04/09 10:36:42;;;;;;;6.25;2.90;;;;;;;30.34;15.86;94100.22;4991628;28;20094;-62
2022/04/09 10:39:29;;;;;;;3.55;1.67;;;;;;;26.99;19.32;94093.72;4991151;28;20038;-63
2022/04/09 10:41:55;;;;;;;3.08;1.70;;;;;;;25.24;20.78;94107.38;4991297;28;20109;-63
2022/04/09 10:44:42;;;;;;;2.67;1.42;;;;;;;25.58;20.48;94091.41;4991431;28;20026;-65
2022/04/09 10:47:10;;;;;;;6.75;2.83;;;;;;;27.28;19.14;94071.78;4991374;28;20129;-64
2022/04/09 10:49:36;;;;;;;5.35;2.38;;;;;;;29.69;16.75;94059.75;4991604;28;20430;-62
2022/04/09 10:52:16;;;;;;;6.30;2.50;;;;;;;30.15;16.02;94049.91;4991757;28;20041;-65
2022/04/09 10:55:03;;;;;;;6.03;1.88;;;;;;;25.00;21.36;94077.22;4991921;28;20414;-61
2022/04/09 10:57:41;;;;;;;5.53;1.67;;;;;;;24.15;22.01;94066.66;4991507;28;20042;-61
2022/04/09 11:00:08;;;;;;;5.20;1.92;;;;;;;24.54;21.91;94038.63;4991099;28;20042;-62
2022/04/09 11:02:34;;;;;;;5.15;2.00;;;;;;;24.14;22.87;94063.22;4991369;28;20022;-63
2022/04/09 11:05:19;;;;;;;6.38;2.55;;;;;;;24.91;21.65;94060.03;4990939;28;20513;-62
2022/04/09 11:08:04;;;;;;;4.60;2.63;;;;;;;27.22;18.93;94046.25;4991117;28;20027;-62
2022/04/09 11:10:31;;;;;;;2.58;1.63;;;;;;;26.49;19.56;94068.19;4990905;28;20049;-60
2022/04/09 11:12:56;;;;;;;4.45;2.08;;;;;;;25.01;20.67;94064.88;4991163;28;20100;-61
2022/04/09 11:15:21;;;;;;;4.38;2.20;;;;;;;25.14;21.13;94056.91;4990906;28;20038;-61
2022/04/09 11:17:47;;;;;;;6.03;2.33;;;;;;;26.36;20.24;94042.69;4990783;28;20018;-63
2022/04/09 11:20:13;;;;;;;4.78;2.72;;;;;;;26.73;19.11;94038.28;4991412;28;20031;-61
2022/04/09 11:22:45;;;;;;;3.33;2.10;;;;;;;25.79;19.51;93996.03;4990775;28;20474;-60
2022/04/09 11:25:21;;;;;;;3.25;1.35;;;;;;;24.85;20.46;94045.06;4990966;28;20109;-61
2022/04/09 11:27:47;;;;;;;7.75;2.60;;;;;;;24.55;20.26;94024.44;4990590;28;20410;-62
2022/04/09 11:30:13;;;;;;;3.50;2.13;;;;;;;24.93;20.03;94036.91;4989203;28;20050;-62
2022/04/09 11:32:38;;;;;;;4.57;2.50;;;;;;;26.05;19.18;94036.47;4990656;28;20022;-62
2022/04/09 11:35:10;;;;;;;5.15;2.03;;;;;;;28.04;17.49;94027.19;4991710;28;20030;-64